createdAt,value
2022-08-07T00:02:36.230Z,13.43
2022-08-07T00:05:01.068Z,13.40
2022-08-07T00:07:40.077Z,13.37
2022-08-07T00:10:30.574Z,13.34
2022-08-07T00:13:01.449Z,13.30
2022-08-07T00:15:38.188Z,13.27
2022-08-07T00:18:19.802Z,13.24
2022-08-07T00:20:52.960Z,13.22
2022-08-07T00:23:22.468Z,13.17
2022-08-07T00:25:59.017Z,13.15
2022-08-07T00:28:33.188Z,13.10
2022-08-07T00:31:05.745Z,13.08
2022-08-07T00:33:34.971Z,13.06
2022-08-07T00:36:03.717Z,13.01
2022-08-07T00:38:34.224Z,12.98
2022-08-07T00:41:02.465Z,12.94
2022-08-07T00:43:59.326Z,12.91
2022-08-07T00:46:19.094Z,12.88
2022-08-07T00:48:49.738Z,12.86
2022-08-07T00:51:18.313Z,12.85
2022-08-07T00:53:50.111Z,12.82
2022-08-07T00:56:19.311Z,12.79
2022-08-07T00:58:49.671Z,12.77
2022-08-07T01:01:20.374Z,12.75
2022-08-07T01:03:56.660Z,12.72
2022-08-07T01:06:29.651Z,12.68
2022-08-07T01:09:01.077Z,12.66
2022-08-07T01:12:23.797Z,12.62
2022-08-07T01:14:21.290Z,12.59
2022-08-07T01:16:58.210Z,12.54
2022-08-07T01:19:32.218Z,12.51
2022-08-07T01:22:03.162Z,12.48
2022-08-07T01:24:37.084Z,12.43
2022-08-07T01:27:06.521Z,12.40
2022-08-07T01:29:47.989Z,12.35
2022-08-07T01:32:19.196Z,12.32
2022-08-07T01:34:52.225Z,12.29
2022-08-07T01:37:22.261Z,12.26
2022-08-07T01:39:53.125Z,12.24
2022-08-07T01:42:38.143Z,12.21
2022-08-07T01:45:18.196Z,12.15
2022-08-07T01:48:17.577Z,12.10
2022-08-07T01:50:48.240Z,12.05
2022-08-07T01:54:09.339Z,12.00
2022-08-07T01:56:13.910Z,11.96
2022-08-07T01:58:49.671Z,11.93
2022-08-07T02:01:25.355Z,11.88
2022-08-07T02:04:17.428Z,11.84
2022-08-07T02:06:52.950Z,11.79
2022-08-07T02:09:51.646Z,11.76
2022-08-07T02:12:29.080Z,11.72
2022-08-07T02:15:01.622Z,11.70
2022-08-07T02:17:40.443Z,11.67
2022-08-07T02:20:17.446Z,11.63
2022-08-07T02:22:57.578Z,11.58
2022-08-07T02:26:10.225Z,11.54
2022-08-07T02:28:25.275Z,11.50
2022-08-07T02:30:56.908Z,11.46
2022-08-07T02:33:41.823Z,11.41
2022-08-07T02:36:28.645Z,11.38
2022-08-07T02:39:16.000Z,11.34
2022-08-07T02:41:54.433Z,11.31
2022-08-07T02:44:26.787Z,11.28
2022-08-07T02:46:57.342Z,11.26
2022-08-07T02:49:28.599Z,11.24
2022-08-07T02:52:21.492Z,11.21
2022-08-07T02:55:03.731Z,11.18
2022-08-07T02:57:37.586Z,11.14
2022-08-07T03:00:10.345Z,11.14
2022-08-07T03:02:55.072Z,11.11
2022-08-07T03:05:25.810Z,11.09
2022-08-07T03:08:09.499Z,11.07
2022-08-07T03:10:46.768Z,11.03
2022-08-07T03:13:20.251Z,11.01
2022-08-07T03:15:56.206Z,10.98
2022-08-07T03:18:34.257Z,10.94
2022-08-07T03:21:08.926Z,10.91
2022-08-07T03:24:21.191Z,10.89
2022-08-07T03:26:34.213Z,10.87
2022-08-07T03:29:10.554Z,10.82
2022-08-07T03:31:46.416Z,10.78
2022-08-07T03:34:22.281Z,10.75
2022-08-07T03:36:55.372Z,10.73
2022-08-07T03:39:46.585Z,10.69
2022-08-07T03:42:18.989Z,10.68
2022-08-07T03:44:53.545Z,10.65
2022-08-07T03:47:29.520Z,10.62
2022-08-07T03:50:13.627Z,10.60
2022-08-07T03:52:43.411Z,10.59
2022-08-07T03:55:12.833Z,10.56
2022-08-07T03:58:32.402Z,10.54
2022-08-07T04:00:46.319Z,10.48
2022-08-07T04:03:21.061Z,10.43
2022-08-07T04:05:51.931Z,10.40
2022-08-07T04:08:27.618Z,10.39
2022-08-07T04:12:24.847Z,10.39
2022-08-07T04:14:10.293Z,10.37
2022-08-07T04:16:38.007Z,10.33
2022-08-07T04:19:14.874Z,10.34
2022-08-07T04:21:58.916Z,10.35
2022-08-07T04:24:38.825Z,10.36
2022-08-07T04:27:15.110Z,10.36
2022-08-07T04:30:02.125Z,10.36
2022-08-07T04:32:47.864Z,10.38
2022-08-07T04:35:17.805Z,10.39
2022-08-07T04:38:02.795Z,10.41
2022-08-07T04:40:33.520Z,10.40
2022-08-07T04:43:03.488Z,10.40
2022-08-07T04:45:57.269Z,10.38
2022-08-07T04:48:38.369Z,10.41
2022-08-07T04:51:10.693Z,10.43
2022-08-07T04:54:01.428Z,10.46
2022-08-07T04:58:10.522Z,10.50
2022-08-07T05:00:12.834Z,10.54
2022-08-07T05:02:29.336Z,10.58
2022-08-07T05:05:51.560Z,10.63
2022-08-07T05:07:59.370Z,10.67
2022-08-07T05:10:35.146Z,10.72
2022-08-07T05:14:51.970Z,10.78
2022-08-07T05:16:04.641Z,10.83
2022-08-07T05:18:37.309Z,10.89
2022-08-07T05:21:14.612Z,10.94
2022-08-07T05:23:49.203Z,10.99
2022-08-07T05:26:24.473Z,11.05
2022-08-07T05:29:06.050Z,11.12
2022-08-07T05:31:39.548Z,11.20
2022-08-07T05:34:17.028Z,11.29
2022-08-07T05:36:52.960Z,11.37
2022-08-07T05:40:05.631Z,11.44
2022-08-07T05:42:34.729Z,11.54
2022-08-07T05:45:25.962Z,11.68
2022-08-07T05:48:03.211Z,11.83
2022-08-07T05:50:42.838Z,11.95
2022-08-07T05:54:12.977Z,12.05
2022-08-07T05:56:05.864Z,12.17
2022-08-07T05:58:39.740Z,12.30
2022-08-07T06:01:13.229Z,12.45
2022-08-07T06:03:56.814Z,12.59
2022-08-07T06:06:32.693Z,12.72
2022-08-07T06:09:05.874Z,12.85
2022-08-07T06:11:39.026Z,12.95
2022-08-07T06:14:12.467Z,13.04
2022-08-07T06:16:56.412Z,13.19
2022-08-07T06:19:52.353Z,13.32
2022-08-07T06:22:27.331Z,13.45
2022-08-07T06:25:36.119Z,13.62
2022-08-07T06:28:05.760Z,13.75
2022-08-07T06:30:35.742Z,13.89
2022-08-07T06:33:16.031Z,14.04
2022-08-07T06:36:06.292Z,14.17
2022-08-07T06:38:35.454Z,14.30
2022-08-07T06:41:13.065Z,14.40
2022-08-07T06:43:45.990Z,14.49
2022-08-07T06:46:31.136Z,14.58
2022-08-07T06:49:04.402Z,14.68
2022-08-07T06:51:49.469Z,14.79
2022-08-07T06:55:32.814Z,14.92
2022-08-07T06:57:13.600Z,15.02
2022-08-07T07:00:11.708Z,15.14
2022-08-07T07:02:53.821Z,15.27
2022-08-07T07:06:02.440Z,15.41
2022-08-07T07:08:18.806Z,15.53
2022-08-07T07:10:56.462Z,15.65
2022-08-07T07:13:55.911Z,15.78
2022-08-07T07:16:27.642Z,15.92
2022-08-07T07:19:04.135Z,16.02
2022-08-07T07:22:04.885Z,16.14
2022-08-07T07:24:42.948Z,16.24
2022-08-07T07:27:14.851Z,16.33
2022-08-07T07:29:56.699Z,16.46
2022-08-07T07:32:40.542Z,16.59
2022-08-07T07:35:13.074Z,16.70
2022-08-07T07:37:47.526Z,16.79
2022-08-07T07:40:26.064Z,16.89
2022-08-07T07:42:56.429Z,17.01
2022-08-07T07:46:53.262Z,17.15
2022-08-07T07:48:24.316Z,17.27
2022-08-07T07:51:08.077Z,17.40
2022-08-07T07:53:51.343Z,17.52
2022-08-07T07:56:30.219Z,17.67
2022-08-07T07:59:01.675Z,17.83
2022-08-07T08:02:02.576Z,18.00
2022-08-07T08:04:25.670Z,18.18
2022-08-07T08:06:55.268Z,18.32
2022-08-07T08:09:29.498Z,18.45
2022-08-07T08:12:02.767Z,18.59
2022-08-07T08:14:34.334Z,18.74
2022-08-07T08:17:55.655Z,18.88
2022-08-07T08:20:19.142Z,19.05
2022-08-07T08:23:08.453Z,19.24
2022-08-07T08:25:58.131Z,19.42
2022-08-07T08:28:38.160Z,19.65
2022-08-07T08:31:14.892Z,19.87
2022-08-07T08:33:49.545Z,20.05
2022-08-07T08:36:25.710Z,20.16
2022-08-07T08:39:02.025Z,20.33
2022-08-07T08:41:58.356Z,20.49
2022-08-07T08:44:38.317Z,20.71
2022-08-07T08:47:26.255Z,20.89
2022-08-07T08:50:05.664Z,21.01
2022-08-07T08:52:40.955Z,21.14
2022-08-07T08:55:55.536Z,21.30
2022-08-07T08:58:24.903Z,21.43
2022-08-07T09:01:14.769Z,21.50
2022-08-07T09:03:55.329Z,21.68
2022-08-07T09:06:36.755Z,21.86
2022-08-07T09:09:21.023Z,22.04
2022-08-07T09:12:20.283Z,22.30
2022-08-07T09:15:00.969Z,22.54
2022-08-07T09:18:08.717Z,22.73
2022-08-07T09:20:57.813Z,22.90
2022-08-07T09:24:33.528Z,23.16
2022-08-07T09:26:40.612Z,23.22
2022-08-07T09:30:05.533Z,23.02
2022-08-07T09:32:26.902Z,22.79
2022-08-07T09:36:00.941Z,22.63
2022-08-07T09:38:00.334Z,22.40
2022-08-07T09:40:48.261Z,22.28
2022-08-07T09:43:40.192Z,22.15
2022-08-07T09:47:55.116Z,22.11
2022-08-07T09:50:02.605Z,22.06
2022-08-07T09:52:34.122Z,22.02
2022-08-07T09:55:17.060Z,21.97
2022-08-07T09:58:32.504Z,21.91
2022-08-07T10:01:53.078Z,21.88
2022-08-07T10:04:38.205Z,21.89
2022-08-07T10:07:31.746Z,21.84
2022-08-07T10:10:21.280Z,21.76
2022-08-07T10:13:55.588Z,21.67
2022-08-07T10:16:24.350Z,21.62
2022-08-07T10:19:21.448Z,21.55
2022-08-07T10:22:16.004Z,21.52
2022-08-07T10:24:57.597Z,21.51
2022-08-07T10:27:46.150Z,21.55
2022-08-07T10:30:20.798Z,21.56
2022-08-07T10:34:14.197Z,22.02
2022-08-07T10:36:43.345Z,22.43
2022-08-07T10:39:42.149Z,22.69
2022-08-07T10:42:36.745Z,22.80
2022-08-07T10:45:19.405Z,23.07
2022-08-07T10:48:03.125Z,23.10
2022-08-07T10:50:36.408Z,23.08
2022-08-07T10:53:12.122Z,23.02
2022-08-07T10:55:53.974Z,22.94
2022-08-07T10:58:40.143Z,22.97
2022-08-07T11:01:35.879Z,23.46
2022-08-07T11:04:31.988Z,23.94
2022-08-07T11:07:15.076Z,24.19
2022-08-07T11:10:10.033Z,24.42
2022-08-07T11:12:49.166Z,24.73
2022-08-07T11:15:33.115Z,25.13
2022-08-07T11:18:07.278Z,25.57
2022-08-07T11:20:47.483Z,25.90
2022-08-07T11:23:30.892Z,26.22
2022-08-07T11:26:14.498Z,26.46
2022-08-07T11:28:55.148Z,26.66
2022-08-07T11:31:38.313Z,26.79
2022-08-07T11:34:17.186Z,26.86
2022-08-07T11:36:57.593Z,26.92
2022-08-07T11:40:00.061Z,27.05
2022-08-07T11:42:40.470Z,27.20
2022-08-07T11:45:20.596Z,27.23
2022-08-07T11:48:29.082Z,27.47
2022-08-07T11:51:09.015Z,27.80
2022-08-07T11:54:00.686Z,28.13
2022-08-07T11:56:42.675Z,28.51
2022-08-07T12:00:11.749Z,28.66
2022-08-07T12:02:35.087Z,28.84
2022-08-07T12:05:15.449Z,29.14
2022-08-07T12:08:04.170Z,29.16
2022-08-07T12:10:41.899Z,28.82
2022-08-07T12:13:37.047Z,28.61
2022-08-07T12:16:11.363Z,28.52
2022-08-07T12:18:47.825Z,28.59
2022-08-07T12:21:56.030Z,28.88
2022-08-07T12:24:38.059Z,28.78
2022-08-07T12:27:16.720Z,28.77
2022-08-07T12:29:52.886Z,28.41
2022-08-07T12:32:28.258Z,28.30
2022-08-07T12:34:57.361Z,28.28
2022-08-07T12:37:28.611Z,28.77
2022-08-07T12:40:46.729Z,29.33
2022-08-07T12:43:11.695Z,29.39
2022-08-07T12:46:09.807Z,29.60
2022-08-07T12:48:52.942Z,29.89
2022-08-07T12:51:46.739Z,30.15
2022-08-07T12:54:38.659Z,30.41
2022-08-07T12:57:10.072Z,30.69
2022-08-07T12:59:54.526Z,30.95
2022-08-07T13:02:41.773Z,31.14
2022-08-07T13:06:02.631Z,31.22
2022-08-07T13:08:35.004Z,31.22
2022-08-07T13:11:18.344Z,31.28
2022-08-07T13:13:57.287Z,31.33
2022-08-07T13:16:36.943Z,31.54
2022-08-07T13:19:22.068Z,31.75
2022-08-07T13:22:12.654Z,32.02
2022-08-07T13:25:00.278Z,32.14
2022-08-07T13:28:05.790Z,32.24
2022-08-07T13:30:41.002Z,32.31
2022-08-07T13:34:30.086Z,32.05
2022-08-07T13:36:25.868Z,32.29
2022-08-07T13:39:05.023Z,32.29
2022-08-07T13:41:47.528Z,32.14
2022-08-07T13:44:25.794Z,32.26
2022-08-07T13:46:59.455Z,32.54
2022-08-07T13:50:34.858Z,32.96
2022-08-07T13:52:31.801Z,33.41
2022-08-07T13:55:08.027Z,33.72
2022-08-07T13:57:58.962Z,33.94
2022-08-07T14:00:50.410Z,34.34
2022-08-07T14:03:29.976Z,34.67
2022-08-07T14:06:14.882Z,34.91
2022-08-07T14:08:48.729Z,35.05
2022-08-07T14:11:24.194Z,35.07
2022-08-07T14:13:57.203Z,35.07
2022-08-07T14:16:31.333Z,34.94
2022-08-07T14:19:02.646Z,34.84
2022-08-07T14:22:03.358Z,34.59
2022-08-07T14:24:29.318Z,34.50
2022-08-07T14:28:11.455Z,34.57
2022-08-07T14:30:06.482Z,34.54
2022-08-07T14:32:45.583Z,34.48
2022-08-07T14:35:45.088Z,34.49
2022-08-07T14:38:30.224Z,34.43
2022-08-07T14:41:03.881Z,34.37
2022-08-07T14:46:31.366Z,33.76
2022-08-07T14:49:55.863Z,33.65
2022-08-07T14:52:03.861Z,33.70
2022-08-07T14:54:43.039Z,33.75
2022-08-07T14:57:14.879Z,33.66
2022-08-07T15:00:03.253Z,33.51
2022-08-07T15:02:37.177Z,33.21
2022-08-07T15:05:19.807Z,32.91
2022-08-07T15:07:51.314Z,32.71
2022-08-07T15:10:25.100Z,32.49
2022-08-07T15:12:58.057Z,32.46
2022-08-07T15:15:38.415Z,32.44
2022-08-07T15:18:14.040Z,32.37
2022-08-07T15:21:03.814Z,32.19
2022-08-07T15:25:15.512Z,32.01
2022-08-07T15:26:38.147Z,31.72
2022-08-07T15:34:55.524Z,31.07
2022-08-07T15:37:28.359Z,30.75
2022-08-07T15:39:59.688Z,30.46
2022-08-07T15:42:52.158Z,30.20
2022-08-07T15:45:56.812Z,29.93
2022-08-07T15:48:30.352Z,29.68
2022-08-07T15:51:10.102Z,29.47
2022-08-07T15:53:53.078Z,29.31
2022-08-07T15:56:25.920Z,29.07
2022-08-07T15:58:59.303Z,28.98
2022-08-07T16:01:38.527Z,28.87
2022-08-07T16:04:14.848Z,28.80
2022-08-07T16:06:50.840Z,28.65
2022-08-07T16:09:24.490Z,28.51
2022-08-07T16:12:28.565Z,28.34
2022-08-07T16:15:55.442Z,28.24
2022-08-07T16:18:14.439Z,28.09
2022-08-07T16:22:03.420Z,27.94
2022-08-07T16:24:02.433Z,27.80
2022-08-07T16:26:59.162Z,27.69
2022-08-07T16:30:10.773Z,27.51
2022-08-07T16:32:46.334Z,27.31
2022-08-07T16:35:52.365Z,27.18
2022-08-07T16:38:59.902Z,27.09
2022-08-07T16:41:54.193Z,26.95
2022-08-07T16:45:15.596Z,26.82
2022-08-07T16:48:28.495Z,26.65
2022-08-07T16:51:51.795Z,26.52
2022-08-07T16:54:16.705Z,26.37
2022-08-07T16:56:57.093Z,26.25
2022-08-07T16:59:46.722Z,26.16
2022-08-07T17:02:53.432Z,26.04
2022-08-07T17:06:19.400Z,25.91
2022-08-07T17:09:04.387Z,25.84
2022-08-07T17:12:01.251Z,25.75
2022-08-07T17:14:32.141Z,25.61
2022-08-07T17:17:07.645Z,25.49
2022-08-07T17:20:02.736Z,25.43
2022-08-07T17:22:37.974Z,25.33
2022-08-07T17:25:15.697Z,25.22
2022-08-07T17:27:56.074Z,25.13
2022-08-07T17:30:27.029Z,25.03
2022-08-07T17:34:15.003Z,24.94
2022-08-07T17:36:01.245Z,24.85
2022-08-07T17:38:44.416Z,24.76
2022-08-07T17:42:01.495Z,24.67
2022-08-07T17:44:35.048Z,24.56
2022-08-07T17:47:08.536Z,24.48
2022-08-07T17:49:44.587Z,24.39
2022-08-07T17:52:30.600Z,24.32
2022-08-07T17:55:09.235Z,24.20
2022-08-07T17:57:58.981Z,24.13
2022-08-07T18:00:48.415Z,24.03
2022-08-07T18:03:25.534Z,23.90
2022-08-07T18:06:02.273Z,23.81
2022-08-07T18:08:35.289Z,23.70
2022-08-07T18:11:53.671Z,23.61
2022-08-07T18:14:05.862Z,23.49
2022-08-07T18:16:37.399Z,23.40
2022-08-07T18:21:10.622Z,23.31
2022-08-07T18:22:28.962Z,23.20
2022-08-07T18:25:24.052Z,23.10
2022-08-07T18:28:15.348Z,23.01
2022-08-07T18:31:05.717Z,22.92
2022-08-07T18:33:58.900Z,22.83
2022-08-07T18:36:40.941Z,22.74
2022-08-07T18:40:08.958Z,22.66
2022-08-07T18:42:18.714Z,22.57
2022-08-07T18:45:44.874Z,22.48
2022-08-07T18:48:00.666Z,22.37
2022-08-07T18:50:58.220Z,22.27
2022-08-07T18:53:40.127Z,22.15
2022-08-07T18:56:16.263Z,22.05
2022-08-07T18:59:00.825Z,21.96
2022-08-07T19:02:18.036Z,21.87
2022-08-07T19:04:57.726Z,21.78
2022-08-07T19:07:34.946Z,21.67
2022-08-07T19:10:12.060Z,21.62
2022-08-07T19:12:59.180Z,21.53
2022-08-07T19:16:05.169Z,21.45
2022-08-07T19:18:36.986Z,21.37
2022-08-07T19:21:47.547Z,21.27
2022-08-07T19:24:11.554Z,21.19
2022-08-07T19:28:30.536Z,21.09
2022-08-07T19:31:00.217Z,21.00
2022-08-07T19:32:46.100Z,20.90
2022-08-07T19:35:22.569Z,20.83
2022-08-07T19:37:57.601Z,20.75
2022-08-07T19:40:31.267Z,20.67
2022-08-07T19:43:09.318Z,20.60
2022-08-07T19:46:07.859Z,20.52
2022-08-07T19:48:43.609Z,20.43
2022-08-07T19:51:20.015Z,20.36
2022-08-07T19:54:33.107Z,20.28
2022-08-07T19:58:00.227Z,20.19
2022-08-07T19:59:41.569Z,20.10
2022-08-07T20:02:19.813Z,20.04
2022-08-07T20:04:51.924Z,19.94
2022-08-07T20:07:47.202Z,19.89
2022-08-07T20:10:35.535Z,19.81
2022-08-07T20:13:23.069Z,19.73
2022-08-07T20:15:57.553Z,19.66
2022-08-07T20:18:32.826Z,19.60
2022-08-07T20:21:21.363Z,19.52
2022-08-07T20:23:57.960Z,19.45
2022-08-07T20:26:38.619Z,19.39
2022-08-07T20:29:47.237Z,19.31
2022-08-07T20:32:06.814Z,19.24
2022-08-07T20:34:50.774Z,19.16
2022-08-07T20:37:24.270Z,19.10
2022-08-07T20:40:02.231Z,19.05
2022-08-07T20:42:33.617Z,19.00
2022-08-07T20:45:02.601Z,18.94
2022-08-07T20:47:55.947Z,18.89
2022-08-07T20:50:26.695Z,18.83
2022-08-07T20:52:55.096Z,18.78
2022-08-07T20:55:26.218Z,18.71
2022-08-07T20:58:02.355Z,18.64
2022-08-07T21:00:42.865Z,18.60
2022-08-07T21:03:15.230Z,18.53
2022-08-07T21:05:54.435Z,18.48
2022-08-07T21:08:36.941Z,18.42
2022-08-07T21:11:12.314Z,18.36
2022-08-07T21:14:16.461Z,18.30
2022-08-07T21:16:56.482Z,18.25
2022-08-07T21:19:51.430Z,18.19
2022-08-07T21:22:20.829Z,18.12
2022-08-07T21:25:12.395Z,18.07
2022-08-07T21:28:02.070Z,18.01
2022-08-07T21:30:38.844Z,17.95
2022-08-07T21:33:16.487Z,17.89
2022-08-07T21:36:05.510Z,17.85
2022-08-07T21:38:49.748Z,17.80
2022-08-07T21:41:23.497Z,17.74
2022-08-07T21:44:03.827Z,17.69
2022-08-07T21:46:40.508Z,17.64
2022-08-07T21:49:16.438Z,17.60
2022-08-07T21:51:57.699Z,17.54
2022-08-07T21:54:39.184Z,17.50
2022-08-07T21:57:39.532Z,17.45
2022-08-07T22:00:22.268Z,17.40
2022-08-07T22:03:00.226Z,17.34
2022-08-07T22:05:44.754Z,17.30
2022-08-07T22:08:18.349Z,17.24
2022-08-07T22:10:50.533Z,17.20
2022-08-07T22:13:24.305Z,17.16
2022-08-07T22:16:42.219Z,17.11
2022-08-07T22:19:07.483Z,17.05
2022-08-07T22:22:01.916Z,17.00
2022-08-07T22:24:35.485Z,16.95
2022-08-07T22:27:13.546Z,16.91
2022-08-07T22:29:50.334Z,16.86
2022-08-07T22:32:25.357Z,16.81
2022-08-07T22:34:55.548Z,16.76
2022-08-07T22:38:03.286Z,16.72
2022-08-07T22:40:29.456Z,16.67
2022-08-07T22:43:03.176Z,16.61
2022-08-07T22:46:40.831Z,16.56
2022-08-07T22:49:02.341Z,16.51
2022-08-07T22:51:53.796Z,16.45
2022-08-07T22:54:49.472Z,16.40
2022-08-07T22:57:40.967Z,16.35
2022-08-07T23:00:16.041Z,16.30
2022-08-07T23:02:58.584Z,16.27
2022-08-07T23:06:07.268Z,16.22
2022-08-07T23:10:00.690Z,16.16
2022-08-07T23:12:06.210Z,16.10
2022-08-07T23:14:47.437Z,16.04
2022-08-07T23:17:31.585Z,15.99
2022-08-07T23:20:51.349Z,15.95
2022-08-07T23:24:05.290Z,15.88
2022-08-07T23:26:50.083Z,15.84
2022-08-07T23:30:38.934Z,15.80
2022-08-07T23:34:34.961Z,15.75
2022-08-07T23:36:08.553Z,15.71
2022-08-07T23:38:57.207Z,15.66
2022-08-07T23:42:01.835Z,15.62
2022-08-07T23:44:45.108Z,15.58
2022-08-07T23:47:27.493Z,15.55
2022-08-07T23:50:16.322Z,15.49
2022-08-07T23:53:11.853Z,15.45
2022-08-07T23:55:52.897Z,15.41
2022-08-07T23:58:28.113Z,15.34
